Var ligger Quinta da Faia i Portugal?

 

Quinta da Faia ligger i regionen Santarem i Portugal!

Sök efter namnet på en stad:

Quinta de Cima, Quintanilla del Molar, Quintana-Martín Galíndez, Quinan Lake, Quinarapon

Här finner du plats för Quinta da Faia på en karta.
För att se hur det för närvarande ser ut, nedan är några bilder av området med online webbkameror.
Du kan också hitta avståndet till de viktigaste städerna i regionen och till städer i övriga Portugal.

Alla platser i världen som heter .


Var ligger Quinta da Faia på kartan?




Webcams nära Quinta da Faia

Vasco Carão › South: Garrocheira, Benavente − Airport.


Vasco Carão › South: Garrocheira, Benavente − Airport - Dagtid
Aktuell
Vasco Carão › South: Garrocheira, Benavente − Airport - Aktuell

Abrantes › North-West: › North-West: Zona Alta (Torre).


Abrantes › North-West: › North-West: Zona Alta (Torre) - Dagtid
Aktuell
Abrantes › North-West: › North-West: Zona Alta (Torre) - Aktuell

Benavente › North-East: AIrport, METAR: BENAV 180005Z 36004KT 17/14 Q1015.


Benavente › North-East: AIrport, METAR: BENAV 180005Z 36004KT 17/14 Q1015 - Dagtid
Aktuell
Benavente › North-East: AIrport, METAR: BENAV 180005Z 36004KT 17/14 Q1015 - Aktuell

Webcams provided by webcams.travel


Avstånd

Var är Quinta da Faia i förhållande till andra platser?

Topp 10 städer i Santarem och avstånd från Quinta da Faia.

Stad#Befolkningkmmiles
Santarém129385117
Entroncamento2198872113
Tomar3191683723
Torres Novas4145261912
Samora Correia5141544729
Abrantes6136464025
Ourém7127293522
Rio Maior8120642717
Fátima9117983421
Almeirim1011556117

Topp 10 städer i Portugal och avstånd från Quinta da Faia.

Stad # Befolkningkmmiles
Lisbon15177988050
Porto2249630204127
Amadora31788568251
Braga4121393249155
Setúbal51171099056
Coimbra610658010062
Queluz71033988251
Funchal8980411051653
Vila Nova de Gaia970810203126
Loures10662307245



Info

Statistik och Geografi

Portugal består av 15299 städer i 20 regioner.

Regionen Santarem har 1174 städer.

Var ligger Quinta da Faia i Portugal?